sensor_id;sensor_type;location;lat;lon;timestamp;P1;P2;P0
74333;PMS5003;62753;40.394;-80.022;2023-06-24T00:02:23;4;4;
74333;PMS5003;62753;40.394;-80.022;2023-06-24T00:04:48;3;3;
74333;PMS5003;62753;40.394;-80.022;2023-06-24T00:07:14;5;5;
74333;PMS5003;62753;40.394;-80.022;2023-06-24T00:09:39;2;2;
74333;PMS5003;62753;40.394;-80.022;2023-06-24T00:12:04;4;4;
74333;PMS5003;62753;40.394;-80.022;2023-06-24T00:14:29;4;4;
74333;PMS5003;62753;40.394;-80.022;2023-06-24T00:16:54;3;3;
74333;PMS5003;62753;40.394;-80.022;2023-06-24T00:19:19;5;5;
74333;PMS5003;62753;40.394;-80.022;2023-06-24T00:21:44;5;5;
74333;PMS5003;62753;40.394;-80.022;2023-06-24T00:24:09;5;4;
74333;PMS5003;62753;40.394;-80.022;2023-06-24T00:26:34;3;3;
74333;PMS5003;62753;40.394;-80.022;2023-06-24T00:28:59;5;4;
74333;PMS5003;62753;40.394;-80.022;2023-06-24T00:31:25;4;3;
74333;PMS5003;62753;40.394;-80.022;2023-06-24T00:33:50;4;4;
74333;PMS5003;62753;40.394;-80.022;2023-06-24T00:36:15;4;4;
74333;PMS5003;62753;40.394;-80.022;2023-06-24T00:38:40;5;5;
74333;PMS5003;62753;40.394;-80.022;2023-06-24T00:41:05;5;5;
74333;PMS5003;62753;40.394;-80.022;2023-06-24T00:43:30;4;4;
74333;PMS5003;62753;40.394;-80.022;2023-06-24T00:45:55;5;4;
74333;PMS5003;62753;40.394;-80.022;2023-06-24T00:48:20;5;5;
74333;PMS5003;62753;40.394;-80.022;2023-06-24T00:50:45;5;5;
74333;PMS5003;62753;40.394;-80.022;2023-06-24T00:53:10;5;4;
74333;PMS5003;62753;40.394;-80.022;2023-06-24T00:55:36;4;3;
74333;PMS5003;62753;40.394;-80.022;2023-06-24T00:58:01;6;5;
74333;PMS5003;62753;40.394;-80.022;2023-06-24T01:00:26;5;4;
74333;PMS5003;62753;40.394;-80.022;2023-06-24T01:02:51;5;5;
74333;PMS5003;62753;40.394;-80.022;2023-06-24T01:05:16;5;5;
74333;PMS5003;62753;40.394;-80.022;2023-06-24T01:07:41;8;6;
74333;PMS5003;62753;40.394;-80.022;2023-06-24T01:10:07;4;4;
74333;PMS5003;62753;40.394;-80.022;2023-06-24T01:12:32;6;5;
74333;PMS5003;62753;40.394;-80.022;2023-06-24T01:14:56;4;4;
74333;PMS5003;62753;40.394;-80.022;2023-06-24T01:17:24;9;7;
74333;PMS5003;62753;40.394;-80.022;2023-06-24T01:19:53;5;5;
74333;PMS5003;62753;40.394;-80.022;2023-06-24T01:22:18;4;4;
74333;PMS5003;62753;40.394;-80.022;2023-06-24T01:24:44;8;7;
74333;PMS5003;62753;40.394;-80.022;2023-06-24T01:29:34;6;6;
74333;PMS5003;62753;40.394;-80.022;2023-06-24T01:31:53;6;6;
74333;PMS5003;62753;40.394;-80.022;2023-06-24T01:34:20;8;8;
74333;PMS5003;62753;40.394;-80.022;2023-06-24T01:36:45;9;8;
74333;PMS5003;62753;40.394;-80.022;2023-06-24T01:39:08;12;9;
74333;PMS5003;62753;40.394;-80.022;2023-06-24T01:41:35;11;9;
74333;PMS5003;62753;40.394;-80.022;2023-06-24T01:43:59;7;7;
74333;PMS5003;62753;40.394;-80.022;2023-06-24T01:46:25;8;7;
74333;PMS5003;62753;40.394;-80.022;2023-06-24T01:48:49;8;8;
74333;PMS5003;62753;40.394;-80.022;2023-06-24T01:51:15;8;7;
74333;PMS5003;62753;40.394;-80.022;2023-06-24T01:53:40;8;8;
74333;PMS5003;62753;40.394;-80.022;2023-06-24T01:56:05;9;8;
74333;PMS5003;62753;40.394;-80.022;2023-06-24T01:58:29;7;7;
74333;PMS5003;62753;40.394;-80.022;2023-06-24T02:00:55;9;9;
74333;PMS5003;62753;40.394;-80.022;2023-06-24T02:03:25;11;11;
74333;PMS5003;62753;40.394;-80.022;2023-06-24T02:05:45;11;9;
74333;PMS5003;62753;40.394;-80.022;2023-06-24T02:08:10;13;10;
74333;PMS5003;62753;40.394;-80.022;2023-06-24T02:10:36;7;7;
74333;PMS5003;62753;40.394;-80.022;2023-06-24T02:13:01;11;10;
74333;PMS5003;62753;40.394;-80.022;2023-06-24T02:15:26;9;9;
74333;PMS5003;62753;40.394;-80.022;2023-06-24T02:17:51;11;11;
74333;PMS5003;62753;40.394;-80.022;2023-06-24T02:20:16;9;9;
74333;PMS5003;62753;40.394;-80.022;2023-06-24T02:22:41;10;9;
74333;PMS5003;62753;40.394;-80.022;2023-06-24T02:25:07;14;14;
74333;PMS5003;62753;40.394;-80.022;2023-06-24T02:27:32;10;10;
74333;PMS5003;62753;40.394;-80.022;2023-06-24T02:29:57;13;13;
74333;PMS5003;62753;40.394;-80.022;2023-06-24T02:32:22;14;14;
74333;PMS5003;62753;40.394;-80.022;2023-06-24T02:34:47;16;14;
74333;PMS5003;62753;40.394;-80.022;2023-06-24T02:37:12;16;16;
74333;PMS5003;62753;40.394;-80.022;2023-06-24T02:39:38;19;19;
74333;PMS5003;62753;40.394;-80.022;2023-06-24T02:42:04;20;19;
74333;PMS5003;62753;40.394;-80.022;2023-06-24T02:44:29;21;20;
74333;PMS5003;62753;40.394;-80.022;2023-06-24T02:46:54;17;16;
74333;PMS5003;62753;40.394;-80.022;2023-06-24T02:49:20;16;16;
74333;PMS5003;62753;40.394;-80.022;2023-06-24T02:51:45;16;14;
74333;PMS5003;62753;40.394;-80.022;2023-06-24T02:54:10;13;13;
74333;PMS5003;62753;40.394;-80.022;2023-06-24T02:56:36;14;13;
74333;PMS5003;62753;40.394;-80.022;2023-06-24T02:59:01;14;13;
74333;PMS5003;62753;40.394;-80.022;2023-06-24T03:01:26;15;14;
74333;PMS5003;62753;40.394;-80.022;2023-06-24T03:03:51;14;14;
74333;PMS5003;62753;40.394;-80.022;2023-06-24T03:06:17;17;15;
74333;PMS5003;62753;40.394;-80.022;2023-06-24T03:08:42;14;14;
74333;PMS5003;62753;40.394;-80.022;2023-06-24T03:11:07;16;15;
74333;PMS5003;62753;40.394;-80.022;2023-06-24T03:13:32;16;16;
74333;PMS5003;62753;40.394;-80.022;2023-06-24T03:15:58;17;16;
74333;PMS5003;62753;40.394;-80.022;2023-06-24T03:18:24;15;15;
74333;PMS5003;62753;40.394;-80.022;2023-06-24T03:20:49;21;18;
74333;PMS5003;62753;40.394;-80.022;2023-06-24T03:23:15;17;16;
74333;PMS5003;62753;40.394;-80.022;2023-06-24T03:25:40;15;14;
74333;PMS5003;62753;40.394;-80.022;2023-06-24T03:28:05;18;17;
74333;PMS5003;62753;40.394;-80.022;2023-06-24T03:30:31;17;16;
74333;PMS5003;62753;40.394;-80.022;2023-06-24T03:32:57;24;23;
74333;PMS5003;62753;40.394;-80.022;2023-06-24T03:35:23;21;21;
74333;PMS5003;62753;40.394;-80.022;2023-06-24T03:37:48;15;15;
74333;PMS5003;62753;40.394;-80.022;2023-06-24T03:40:14;19;18;
74333;PMS5003;62753;40.394;-80.022;2023-06-24T03:42:39;12;12;
74333;PMS5003;62753;40.394;-80.022;2023-06-24T03:45:05;14;13;
74333;PMS5003;62753;40.394;-80.022;2023-06-24T03:47:30;18;16;
74333;PMS5003;62753;40.394;-80.022;2023-06-24T03:49:55;13;13;
74333;PMS5003;62753;40.394;-80.022;2023-06-24T03:52:20;16;16;
74333;PMS5003;62753;40.394;-80.022;2023-06-24T03:54:45;19;18;
74333;PMS5003;62753;40.394;-80.022;2023-06-24T03:57:11;17;17;
74333;PMS5003;62753;40.394;-80.022;2023-06-24T03:59:36;20;17;
74333;PMS5003;62753;40.394;-80.022;2023-06-24T04:02:01;15;14;
74333;PMS5003;62753;40.394;-80.022;2023-06-24T04:04:27;16;16;
74333;PMS5003;62753;40.394;-80.022;2023-06-24T04:06:52;13;13;
74333;PMS5003;62753;40.394;-80.022;2023-06-24T04:09:17;17;17;
74333;PMS5003;62753;40.394;-80.022;2023-06-24T04:11:43;16;15;
74333;PMS5003;62753;40.394;-80.022;2023-06-24T04:14:08;14;14;
74333;PMS5003;62753;40.394;-80.022;2023-06-24T04:16:34;17;15;
74333;PMS5003;62753;40.394;-80.022;2023-06-24T04:19:00;17;16;
74333;PMS5003;62753;40.394;-80.022;2023-06-24T04:21:25;14;14;
74333;PMS5003;62753;40.394;-80.022;2023-06-24T04:23:50;13;13;
74333;PMS5003;62753;40.394;-80.022;2023-06-24T04:26:15;16;16;
74333;PMS5003;62753;40.394;-80.022;2023-06-24T04:28:40;17;16;
74333;PMS5003;62753;40.394;-80.022;2023-06-24T04:31:06;16;16;
74333;PMS5003;62753;40.394;-80.022;2023-06-24T04:33:31;18;14;
74333;PMS5003;62753;40.394;-80.022;2023-06-24T04:35:57;15;14;
74333;PMS5003;62753;40.394;-80.022;2023-06-24T04:38:22;19;15;
74333;PMS5003;62753;40.394;-80.022;2023-06-24T04:40:48;16;13;
74333;PMS5003;62753;40.394;-80.022;2023-06-24T04:43:14;17;16;
74333;PMS5003;62753;40.394;-80.022;2023-06-24T04:45:39;15;15;
74333;PMS5003;62753;40.394;-80.022;2023-06-24T04:48:05;18;16;
74333;PMS5003;62753;40.394;-80.022;2023-06-24T04:50:30;14;14;
74333;PMS5003;62753;40.394;-80.022;2023-06-24T04:52:55;11;11;
74333;PMS5003;62753;40.394;-80.022;2023-06-24T04:55:20;15;15;
74333;PMS5003;62753;40.394;-80.022;2023-06-24T04:57:46;14;13;
74333;PMS5003;62753;40.394;-80.022;2023-06-24T05:00:11;14;14;
74333;PMS5003;62753;40.394;-80.022;2023-06-24T05:02:36;12;12;
74333;PMS5003;62753;40.394;-80.022;2023-06-24T05:05:01;11;11;
74333;PMS5003;62753;40.394;-80.022;2023-06-24T05:07:26;13;13;
74333;PMS5003;62753;40.394;-80.022;2023-06-24T05:09:51;13;12;
74333;PMS5003;62753;40.394;-80.022;2023-06-24T05:12:17;11;11;
74333;PMS5003;62753;40.394;-80.022;2023-06-24T05:14:42;12;12;
74333;PMS5003;62753;40.394;-80.022;2023-06-24T05:17:07;11;10;
74333;PMS5003;62753;40.394;-80.022;2023-06-24T05:19:33;12;12;
74333;PMS5003;62753;40.394;-80.022;2023-06-24T05:21:58;11;11;
74333;PMS5003;62753;40.394;-80.022;2023-06-24T05:24:23;16;16;
74333;PMS5003;62753;40.394;-80.022;2023-06-24T05:26:49;14;13;
74333;PMS5003;62753;40.394;-80.022;2023-06-24T05:29:14;15;13;
74333;PMS5003;62753;40.394;-80.022;2023-06-24T05:31:39;13;13;
74333;PMS5003;62753;40.394;-80.022;2023-06-24T05:34:04;10;10;
74333;PMS5003;62753;40.394;-80.022;2023-06-24T05:36:29;11;11;
74333;PMS5003;62753;40.394;-80.022;2023-06-24T05:38:55;12;12;
74333;PMS5003;62753;40.394;-80.022;2023-06-24T05:41:20;13;11;
74333;PMS5003;62753;40.394;-80.022;2023-06-24T05:43:45;13;12;
74333;PMS5003;62753;40.394;-80.022;2023-06-24T05:46:10;14;14;
74333;PMS5003;62753;40.394;-80.022;2023-06-24T05:48:36;13;13;
74333;PMS5003;62753;40.394;-80.022;2023-06-24T05:51:01;12;12;
74333;PMS5003;62753;40.394;-80.022;2023-06-24T05:53:26;17;17;
74333;PMS5003;62753;40.394;-80.022;2023-06-24T05:55:52;17;16;
74333;PMS5003;62753;40.394;-80.022;2023-06-24T05:58:17;15;14;
74333;PMS5003;62753;40.394;-80.022;2023-06-24T06:00:42;14;13;
74333;PMS5003;62753;40.394;-80.022;2023-06-24T06:03:08;15;14;
74333;PMS5003;62753;40.394;-80.022;2023-06-24T06:05:33;16;16;
74333;PMS5003;62753;40.394;-80.022;2023-06-24T06:07:58;14;14;
74333;PMS5003;62753;40.394;-80.022;2023-06-24T06:10:23;14;13;
74333;PMS5003;62753;40.394;-80.022;2023-06-24T06:12:48;17;17;
74333;PMS5003;62753;40.394;-80.022;2023-06-24T06:15:14;16;13;
74333;PMS5003;62753;40.394;-80.022;2023-06-24T06:17:39;15;14;
74333;PMS5003;62753;40.394;-80.022;2023-06-24T06:20:05;14;11;
74333;PMS5003;62753;40.394;-80.022;2023-06-24T06:22:30;12;12;
74333;PMS5003;62753;40.394;-80.022;2023-06-24T06:24:55;13;13;
74333;PMS5003;62753;40.394;-80.022;2023-06-24T06:27:20;14;14;
74333;PMS5003;62753;40.394;-80.022;2023-06-24T06:29:46;14;13;
74333;PMS5003;62753;40.394;-80.022;2023-06-24T06:32:11;13;12;
74333;PMS5003;62753;40.394;-80.022;2023-06-24T06:34:37;13;13;
74333;PMS5003;62753;40.394;-80.022;2023-06-24T06:37:02;13;13;
74333;PMS5003;62753;40.394;-80.022;2023-06-24T06:39:27;14;13;
74333;PMS5003;62753;40.394;-80.022;2023-06-24T06:41:53;15;15;
74333;PMS5003;62753;40.394;-80.022;2023-06-24T06:44:18;14;14;
74333;PMS5003;62753;40.394;-80.022;2023-06-24T06:46:43;16;16;
74333;PMS5003;62753;40.394;-80.022;2023-06-24T06:49:09;14;14;
74333;PMS5003;62753;40.394;-80.022;2023-06-24T06:51:34;15;14;
74333;PMS5003;62753;40.394;-80.022;2023-06-24T06:53:59;15;14;
74333;PMS5003;62753;40.394;-80.022;2023-06-24T06:56:25;17;15;
74333;PMS5003;62753;40.394;-80.022;2023-06-24T06:58:50;16;16;
74333;PMS5003;62753;40.394;-80.022;2023-06-24T07:01:15;23;19;
74333;PMS5003;62753;40.394;-80.022;2023-06-24T07:03:40;15;15;
74333;PMS5003;62753;40.394;-80.022;2023-06-24T07:06:05;16;16;
74333;PMS5003;62753;40.394;-80.022;2023-06-24T07:08:31;24;19;
74333;PMS5003;62753;40.394;-80.022;2023-06-24T07:10:56;18;17;
74333;PMS5003;62753;40.394;-80.022;2023-06-24T07:13:22;16;15;
74333;PMS5003;62753;40.394;-80.022;2023-06-24T07:15:47;19;18;
74333;PMS5003;62753;40.394;-80.022;2023-06-24T07:18:12;15;14;
74333;PMS5003;62753;40.394;-80.022;2023-06-24T07:20:38;21;17;
74333;PMS5003;62753;40.394;-80.022;2023-06-24T07:23:03;18;17;
74333;PMS5003;62753;40.394;-80.022;2023-06-24T07:25:29;17;16;
74333;PMS5003;62753;40.394;-80.022;2023-06-24T07:27:54;17;17;
74333;PMS5003;62753;40.394;-80.022;2023-06-24T07:30:19;16;16;
74333;PMS5003;62753;40.394;-80.022;2023-06-24T07:32:45;17;17;
74333;PMS5003;62753;40.394;-80.022;2023-06-24T07:35:10;17;14;
74333;PMS5003;62753;40.394;-80.022;2023-06-24T07:37:35;13;12;
74333;PMS5003;62753;40.394;-80.022;2023-06-24T07:40:00;13;12;
74333;PMS5003;62753;40.394;-80.022;2023-06-24T07:42:26;13;12;
74333;PMS5003;62753;40.394;-80.022;2023-06-24T07:44:51;13;13;
74333;PMS5003;62753;40.394;-80.022;2023-06-24T07:47:16;14;13;
74333;PMS5003;62753;40.394;-80.022;2023-06-24T07:49:42;13;12;
74333;PMS5003;62753;40.394;-80.022;2023-06-24T07:52:13;21;16;
74333;PMS5003;62753;40.394;-80.022;2023-06-24T07:54:33;16;14;
74333;PMS5003;62753;40.394;-80.022;2023-06-24T07:56:58;11;11;
74333;PMS5003;62753;40.394;-80.022;2023-06-24T07:59:23;12;12;
74333;PMS5003;62753;40.394;-80.022;2023-06-24T08:01:48;14;13;
74333;PMS5003;62753;40.394;-80.022;2023-06-24T08:04:14;9;9;
74333;PMS5003;62753;40.394;-80.022;2023-06-24T08:06:38;13;11;
74333;PMS5003;62753;40.394;-80.022;2023-06-24T08:09:03;12;12;
74333;PMS5003;62753;40.394;-80.022;2023-06-24T08:11:28;13;13;
74333;PMS5003;62753;40.394;-80.022;2023-06-24T08:13:54;11;11;
74333;PMS5003;62753;40.394;-80.022;2023-06-24T08:16:19;10;10;
74333;PMS5003;62753;40.394;-80.022;2023-06-24T08:18:44;12;12;
74333;PMS5003;62753;40.394;-80.022;2023-06-24T08:21:09;12;12;
74333;PMS5003;62753;40.394;-80.022;2023-06-24T08:23:35;12;11;
74333;PMS5003;62753;40.394;-80.022;2023-06-24T08:26:00;11;11;
74333;PMS5003;62753;40.394;-80.022;2023-06-24T08:28:25;11;11;
74333;PMS5003;62753;40.394;-80.022;2023-06-24T08:30:50;11;11;
74333;PMS5003;62753;40.394;-80.022;2023-06-24T08:33:16;11;11;
74333;PMS5003;62753;40.394;-80.022;2023-06-24T08:35:41;12;11;
74333;PMS5003;62753;40.394;-80.022;2023-06-24T08:38:06;10;10;
74333;PMS5003;62753;40.394;-80.022;2023-06-24T08:40:31;9;9;
74333;PMS5003;62753;40.394;-80.022;2023-06-24T08:42:57;13;12;
74333;PMS5003;62753;40.394;-80.022;2023-06-24T08:45:22;14;14;
74333;PMS5003;62753;40.394;-80.022;2023-06-24T08:47:47;12;11;
74333;PMS5003;62753;40.394;-80.022;2023-06-24T08:50:13;15;12;
74333;PMS5003;62753;40.394;-80.022;2023-06-24T08:52:38;14;14;
74333;PMS5003;62753;40.394;-80.022;2023-06-24T08:55:04;13;13;
74333;PMS5003;62753;40.394;-80.022;2023-06-24T08:57:28;12;11;
74333;PMS5003;62753;40.394;-80.022;2023-06-24T08:59:53;14;13;
74333;PMS5003;62753;40.394;-80.022;2023-06-24T09:02:18;15;13;
74333;PMS5003;62753;40.394;-80.022;2023-06-24T09:04:44;15;14;
74333;PMS5003;62753;40.394;-80.022;2023-06-24T09:07:09;15;15;
74333;PMS5003;62753;40.394;-80.022;2023-06-24T09:09:35;14;14;
74333;PMS5003;62753;40.394;-80.022;2023-06-24T09:12:00;15;15;
74333;PMS5003;62753;40.394;-80.022;2023-06-24T09:14:25;16;15;
74333;PMS5003;62753;40.394;-80.022;2023-06-24T09:16:51;14;13;
74333;PMS5003;62753;40.394;-80.022;2023-06-24T09:19:17;13;12;
74333;PMS5003;62753;40.394;-80.022;2023-06-24T09:21:40;12;12;
74333;PMS5003;62753;40.394;-80.022;2023-06-24T09:24:05;13;13;
74333;PMS5003;62753;40.394;-80.022;2023-06-24T09:26:31;17;17;
74333;PMS5003;62753;40.394;-80.022;2023-06-24T09:28:57;13;13;
74333;PMS5003;62753;40.394;-80.022;2023-06-24T09:31:22;16;15;
74333;PMS5003;62753;40.394;-80.022;2023-06-24T09:33:47;16;14;
74333;PMS5003;62753;40.394;-80.022;2023-06-24T09:36:13;15;14;
74333;PMS5003;62753;40.394;-80.022;2023-06-24T09:38:38;15;14;
74333;PMS5003;62753;40.394;-80.022;2023-06-24T09:41:03;12;12;
74333;PMS5003;62753;40.394;-80.022;2023-06-24T09:43:28;14;14;
74333;PMS5003;62753;40.394;-80.022;2023-06-24T09:45:53;15;15;
74333;PMS5003;62753;40.394;-80.022;2023-06-24T09:48:19;13;13;
74333;PMS5003;62753;40.394;-80.022;2023-06-24T09:50:44;14;13;
74333;PMS5003;62753;40.394;-80.022;2023-06-24T09:53:09;15;13;
74333;PMS5003;62753;40.394;-80.022;2023-06-24T09:55:35;16;14;
74333;PMS5003;62753;40.394;-80.022;2023-06-24T09:58:00;16;15;
74333;PMS5003;62753;40.394;-80.022;2023-06-24T10:00:25;12;12;
74333;PMS5003;62753;40.394;-80.022;2023-06-24T10:02:51;12;12;
74333;PMS5003;62753;40.394;-80.022;2023-06-24T10:05:16;15;13;
74333;PMS5003;62753;40.394;-80.022;2023-06-24T10:07:41;15;14;
74333;PMS5003;62753;40.394;-80.022;2023-06-24T10:10:07;15;14;
74333;PMS5003;62753;40.394;-80.022;2023-06-24T10:12:33;12;12;
74333;PMS5003;62753;40.394;-80.022;2023-06-24T10:14:57;19;17;
74333;PMS5003;62753;40.394;-80.022;2023-06-24T10:17:22;17;16;
74333;PMS5003;62753;40.394;-80.022;2023-06-24T10:19:47;16;16;
74333;PMS5003;62753;40.394;-80.022;2023-06-24T10:22:13;16;16;
74333;PMS5003;62753;40.394;-80.022;2023-06-24T10:24:38;18;17;
74333;PMS5003;62753;40.394;-80.022;2023-06-24T10:27:04;17;17;
74333;PMS5003;62753;40.394;-80.022;2023-06-24T10:29:31;19;19;
74333;PMS5003;62753;40.394;-80.022;2023-06-24T10:31:55;19;18;
74333;PMS5003;62753;40.394;-80.022;2023-06-24T10:34:24;19;18;
74333;PMS5003;62753;40.394;-80.022;2023-06-24T10:41:37;19;18;
74333;PMS5003;62753;40.394;-80.022;2023-06-24T10:46:28;23;18;
74333;PMS5003;62753;40.394;-80.022;2023-06-24T10:48:54;18;18;
74333;PMS5003;62753;40.394;-80.022;2023-06-24T10:51:19;14;14;
74333;PMS5003;62753;40.394;-80.022;2023-06-24T10:53:44;18;15;
74333;PMS5003;62753;40.394;-80.022;2023-06-24T10:56:09;16;15;
74333;PMS5003;62753;40.394;-80.022;2023-06-24T10:58:35;18;17;
74333;PMS5003;62753;40.394;-80.022;2023-06-24T11:01:07;16;15;
74333;PMS5003;62753;40.394;-80.022;2023-06-24T11:03:26;16;15;
74333;PMS5003;62753;40.394;-80.022;2023-06-24T11:05:51;16;15;
74333;PMS5003;62753;40.394;-80.022;2023-06-24T11:08:17;14;13;
74333;PMS5003;62753;40.394;-80.022;2023-06-24T11:10:42;20;18;
74333;PMS5003;62753;40.394;-80.022;2023-06-24T11:13:07;25;19;
74333;PMS5003;62753;40.394;-80.022;2023-06-24T11:15:33;15;14;
74333;PMS5003;62753;40.394;-80.022;2023-06-24T11:18:01;19;17;
74333;PMS5003;62753;40.394;-80.022;2023-06-24T11:20:24;23;19;
74333;PMS5003;62753;40.394;-80.022;2023-06-24T11:22:49;19;17;
74333;PMS5003;62753;40.394;-80.022;2023-06-24T11:25:15;19;19;
74333;PMS5003;62753;40.394;-80.022;2023-06-24T11:27:41;19;17;
74333;PMS5003;62753;40.394;-80.022;2023-06-24T11:30:06;18;17;
74333;PMS5003;62753;40.394;-80.022;2023-06-24T11:32:35;19;18;
74333;PMS5003;62753;40.394;-80.022;2023-06-24T11:34:58;19;18;
74333;PMS5003;62753;40.394;-80.022;2023-06-24T11:37:30;23;20;
74333;PMS5003;62753;40.394;-80.022;2023-06-24T11:42:15;20;17;
74333;PMS5003;62753;40.394;-80.022;2023-06-24T11:44:41;22;19;
74333;PMS5003;62753;40.394;-80.022;2023-06-24T11:47:06;17;16;
74333;PMS5003;62753;40.394;-80.022;2023-06-24T11:49:31;21;20;
74333;PMS5003;62753;40.394;-80.022;2023-06-24T11:51:56;24;20;
74333;PMS5003;62753;40.394;-80.022;2023-06-24T11:54:21;25;24;
74333;PMS5003;62753;40.394;-80.022;2023-06-24T11:56:49;23;19;
74333;PMS5003;62753;40.394;-80.022;2023-06-24T11:59:15;22;20;
74333;PMS5003;62753;40.394;-80.022;2023-06-24T12:01:38;20;20;
74333;PMS5003;62753;40.394;-80.022;2023-06-24T12:04:09;19;18;
74333;PMS5003;62753;40.394;-80.022;2023-06-24T12:06:30;26;21;
74333;PMS5003;62753;40.394;-80.022;2023-06-24T12:08:55;17;16;
74333;PMS5003;62753;40.394;-80.022;2023-06-24T12:11:20;19;18;
74333;PMS5003;62753;40.394;-80.022;2023-06-24T12:13:46;18;17;
74333;PMS5003;62753;40.394;-80.022;2023-06-24T12:16:11;21;18;
74333;PMS5003;62753;40.394;-80.022;2023-06-24T12:18:37;21;17;
74333;PMS5003;62753;40.394;-80.022;2023-06-24T12:21:02;21;18;
74333;PMS5003;62753;40.394;-80.022;2023-06-24T12:23:28;15;14;
74333;PMS5003;62753;40.394;-80.022;2023-06-24T12:25:53;19;17;
74333;PMS5003;62753;40.394;-80.022;2023-06-24T12:28:18;17;17;
74333;PMS5003;62753;40.394;-80.022;2023-06-24T12:30:44;22;20;
74333;PMS5003;62753;40.394;-80.022;2023-06-24T12:33:10;23;18;
74333;PMS5003;62753;40.394;-80.022;2023-06-24T12:35:35;17;14;
74333;PMS5003;62753;40.394;-80.022;2023-06-24T12:38:00;16;15;
74333;PMS5003;62753;40.394;-80.022;2023-06-24T12:40:27;15;14;
74333;PMS5003;62753;40.394;-80.022;2023-06-24T12:42:52;16;16;
74333;PMS5003;62753;40.394;-80.022;2023-06-24T12:45:17;16;15;
74333;PMS5003;62753;40.394;-80.022;2023-06-24T12:47:42;17;15;
74333;PMS5003;62753;40.394;-80.022;2023-06-24T12:50:08;18;16;
74333;PMS5003;62753;40.394;-80.022;2023-06-24T12:52:33;18;15;
74333;PMS5003;62753;40.394;-80.022;2023-06-24T12:54:58;14;13;
74333;PMS5003;62753;40.394;-80.022;2023-06-24T12:57:24;17;17;
74333;PMS5003;62753;40.394;-80.022;2023-06-24T12:59:49;16;14;
74333;PMS5003;62753;40.394;-80.022;2023-06-24T13:02:15;15;14;
74333;PMS5003;62753;40.394;-80.022;2023-06-24T13:04:40;16;13;
74333;PMS5003;62753;40.394;-80.022;2023-06-24T13:07:05;13;13;
74333;PMS5003;62753;40.394;-80.022;2023-06-24T13:09:30;16;15;
74333;PMS5003;62753;40.394;-80.022;2023-06-24T13:11:56;15;13;
74333;PMS5003;62753;40.394;-80.022;2023-06-24T13:14:20;12;11;
74333;PMS5003;62753;40.394;-80.022;2023-06-24T13:16:46;15;13;
74333;PMS5003;62753;40.394;-80.022;2023-06-24T13:19:12;14;14;
74333;PMS5003;62753;40.394;-80.022;2023-06-24T13:21:37;14;12;
74333;PMS5003;62753;40.394;-80.022;2023-06-24T13:24:02;11;11;
74333;PMS5003;62753;40.394;-80.022;2023-06-24T13:26:27;12;12;
74333;PMS5003;62753;40.394;-80.022;2023-06-24T13:28:52;11;11;
74333;PMS5003;62753;40.394;-80.022;2023-06-24T13:31:18;11;11;
74333;PMS5003;62753;40.394;-80.022;2023-06-24T13:33:43;11;11;
74333;PMS5003;62753;40.394;-80.022;2023-06-24T13:36:09;13;12;
74333;PMS5003;62753;40.394;-80.022;2023-06-24T13:38:34;10;10;
74333;PMS5003;62753;40.394;-80.022;2023-06-24T13:40:59;14;13;
74333;PMS5003;62753;40.394;-80.022;2023-06-24T13:43:24;10;10;
74333;PMS5003;62753;40.394;-80.022;2023-06-24T13:45:50;13;12;
74333;PMS5003;62753;40.394;-80.022;2023-06-24T13:48:14;11;10;
74333;PMS5003;62753;40.394;-80.022;2023-06-24T13:50:40;18;14;
74333;PMS5003;62753;40.394;-80.022;2023-06-24T13:53:06;13;12;
74333;PMS5003;62753;40.394;-80.022;2023-06-24T13:55:30;12;12;
74333;PMS5003;62753;40.394;-80.022;2023-06-24T13:57:56;11;10;
74333;PMS5003;62753;40.394;-80.022;2023-06-24T14:00:21;12;11;
74333;PMS5003;62753;40.394;-80.022;2023-06-24T14:02:47;10;10;
74333;PMS5003;62753;40.394;-80.022;2023-06-24T14:05:12;13;13;
74333;PMS5003;62753;40.394;-80.022;2023-06-24T14:07:38;13;13;
74333;PMS5003;62753;40.394;-80.022;2023-06-24T14:10:03;16;14;
74333;PMS5003;62753;40.394;-80.022;2023-06-24T14:12:28;13;13;
74333;PMS5003;62753;40.394;-80.022;2023-06-24T14:14:54;14;12;
74333;PMS5003;62753;40.394;-80.022;2023-06-24T14:17:19;11;11;
74333;PMS5003;62753;40.394;-80.022;2023-06-24T14:19:45;13;13;
74333;PMS5003;62753;40.394;-80.022;2023-06-24T14:22:10;10;10;
74333;PMS5003;62753;40.394;-80.022;2023-06-24T14:24:36;14;11;
74333;PMS5003;62753;40.394;-80.022;2023-06-24T14:27:00;11;11;
74333;PMS5003;62753;40.394;-80.022;2023-06-24T14:29:26;10;10;
74333;PMS5003;62753;40.394;-80.022;2023-06-24T14:31:51;10;10;
74333;PMS5003;62753;40.394;-80.022;2023-06-24T14:34:16;11;9;
74333;PMS5003;62753;40.394;-80.022;2023-06-24T14:36:41;10;9;
74333;PMS5003;62753;40.394;-80.022;2023-06-24T14:39:06;12;12;
74333;PMS5003;62753;40.394;-80.022;2023-06-24T14:41:32;10;10;
74333;PMS5003;62753;40.394;-80.022;2023-06-24T14:43:57;11;11;
74333;PMS5003;62753;40.394;-80.022;2023-06-24T14:46:22;8;8;
74333;PMS5003;62753;40.394;-80.022;2023-06-24T14:48:47;9;9;
74333;PMS5003;62753;40.394;-80.022;2023-06-24T14:51:12;10;10;
74333;PMS5003;62753;40.394;-80.022;2023-06-24T14:53:37;6;6;
74333;PMS5003;62753;40.394;-80.022;2023-06-24T14:56:02;8;7;
74333;PMS5003;62753;40.394;-80.022;2023-06-24T14:58:27;7;7;
74333;PMS5003;62753;40.394;-80.022;2023-06-24T15:00:53;8;8;
74333;PMS5003;62753;40.394;-80.022;2023-06-24T15:03:17;8;7;
74333;PMS5003;62753;40.394;-80.022;2023-06-24T15:05:43;10;10;
74333;PMS5003;62753;40.394;-80.022;2023-06-24T15:08:08;9;9;
74333;PMS5003;62753;40.394;-80.022;2023-06-24T15:10:33;7;7;
74333;PMS5003;62753;40.394;-80.022;2023-06-24T15:12:58;8;8;
74333;PMS5003;62753;40.394;-80.022;2023-06-24T15:15:23;5;5;
74333;PMS5003;62753;40.394;-80.022;2023-06-24T15:17:48;7;6;
74333;PMS5003;62753;40.394;-80.022;2023-06-24T15:20:13;8;8;
74333;PMS5003;62753;40.394;-80.022;2023-06-24T15:22:39;8;7;
74333;PMS5003;62753;40.394;-80.022;2023-06-24T15:25:04;9;9;
74333;PMS5003;62753;40.394;-80.022;2023-06-24T15:27:29;6;6;
74333;PMS5003;62753;40.394;-80.022;2023-06-24T15:29:54;7;7;
74333;PMS5003;62753;40.394;-80.022;2023-06-24T15:32:19;6;6;
74333;PMS5003;62753;40.394;-80.022;2023-06-24T15:34:44;6;6;
74333;PMS5003;62753;40.394;-80.022;2023-06-24T15:37:09;4;4;
74333;PMS5003;62753;40.394;-80.022;2023-06-24T15:39:34;5;5;
74333;PMS5003;62753;40.394;-80.022;2023-06-24T15:41:59;4;4;
74333;PMS5003;62753;40.394;-80.022;2023-06-24T15:44:29;3;3;
74333;PMS5003;62753;40.394;-80.022;2023-06-24T15:46:50;5;5;
74333;PMS5003;62753;40.394;-80.022;2023-06-24T15:49:15;6;5;
74333;PMS5003;62753;40.394;-80.022;2023-06-24T15:51:40;4;3;